Time;durP1;ratioP1;P1;durP2;ratioP2;P2;SDS_P1;SDS_P2;PMS_P1;PMS_P2;Temp;Humidity;BMP_temperature;BMP_pressure;BME280_temperature;BME280_humidity;BME280_pressure;Samples;Min_cycle;Max_cycle;Signal;HPM_P1;HPM_P2
2022/07/15 00:00:04;;;;;;;6.55;3.05;;;;;;;13.80;100.00;101198.41;5069953;28;20032;-68
2022/07/15 00:02:29;;;;;;;10.32;3.30;;;;;;;13.75;100.00;101189.84;5067625;28;20043;-68
2022/07/15 00:04:55;;;;;;;10.23;3.38;;;;;;;13.65;100.00;101177.19;5064639;28;20033;-68
2022/07/15 00:07:20;;;;;;;17.45;4.45;;;;;;;13.70;100.00;101197.16;5071943;28;20462;-68
2022/07/15 00:12:30;;;;;;;7.45;3.70;;;;;;;13.56;100.00;101172.34;5068367;28;20044;-68
2022/07/15 00:14:55;;;;;;;7.70;3.80;;;;;;;13.49;100.00;101166.53;5073095;28;20029;-68
2022/07/15 00:17:20;;;;;;;9.07;4.13;;;;;;;13.55;100.00;101191.78;5071697;28;20030;-67
2022/07/15 00:19:46;;;;;;;10.63;4.30;;;;;;;13.20;100.00;101138.94;5076810;28;20490;-67
2022/07/15 00:22:12;;;;;;;9.93;3.88;;;;;;;13.46;100.00;101192.22;5074202;28;20033;-68
2022/07/15 00:24:38;;;;;;;6.72;3.42;;;;;;;13.47;100.00;101193.94;5110485;27;20046;-68
2022/07/15 00:27:04;;;;;;;13.73;4.10;;;;;;;13.45;100.00;101187.91;5070818;28;20395;-68
2022/07/15 00:29:30;;;;;;;8.20;4.13;;;;;;;13.43;100.00;101193.25;5085802;28;20382;-68
2022/07/15 00:31:55;;;;;;;8.30;3.50;;;;;;;13.32;100.00;101183.22;5072715;28;20025;-68
2022/07/15 00:34:21;;;;;;;13.68;4.30;;;;;;;13.28;100.00;101194.84;5077306;28;20039;-68
2022/07/15 00:36:47;;;;;;;12.73;4.00;;;;;;;13.28;100.00;101202.75;5073446;28;20412;-68
2022/07/15 00:39:13;;;;;;;7.97;3.80;;;;;;;13.18;100.00;101187.47;5073988;28;20373;-68
2022/07/15 00:41:39;;;;;;;13.60;3.95;;;;;;;13.17;100.00;101199.81;5076984;28;20040;-68
2022/07/15 00:44:05;;;;;;;7.55;3.75;;;;;;;13.16;100.00;101187.53;5085358;28;20020;-68
2022/07/15 00:46:31;;;;;;;7.07;3.35;;;;;;;13.17;100.00;101194.53;5064568;28;20108;-68
2022/07/15 00:48:59;;;;;;;8.25;3.50;;;;;;;13.16;100.00;101184.88;5070309;28;20033;-68
2022/07/15 00:51:25;;;;;;;13.05;4.20;;;;;;;13.16;100.00;101195.44;5071427;28;20021;-68
2022/07/15 00:53:52;;;;;;;7.25;3.25;;;;;;;13.09;100.00;101194.03;5073737;28;20020;-68
2022/07/15 00:56:18;;;;;;;15.05;4.20;;;;;;;13.01;100.00;101201.41;5058491;28;20033;-68
2022/07/15 00:58:43;;;;;;;8.77;3.95;;;;;;;12.95;100.00;101192.91;5059833;28;20029;-68
2022/07/15 01:01:10;;;;;;;8.65;3.63;;;;;;;13.00;100.00;101194.44;5078902;28;20028;-68
2022/07/15 01:03:35;;;;;;;8.20;4.05;;;;;;;12.88;100.00;101179.16;5068235;28;20025;-68
2022/07/15 01:06:01;;;;;;;5.93;3.42;;;;;;;12.92;100.00;101179.88;5061887;28;20025;-68
2022/07/15 01:08:26;;;;;;;9.73;4.10;;;;;;;12.65;100.00;101140.69;5060135;28;20054;-68
2022/07/15 01:10:52;;;;;;;7.70;3.70;;;;;;;12.91;100.00;101189.56;5063761;28;20028;-68
2022/07/15 01:13:19;;;;;;;10.18;3.50;;;;;;;12.88;100.00;101189.72;5062784;28;20039;-68
2022/07/15 01:15:45;;;;;;;8.25;3.63;;;;;;;12.83;100.00;101186.47;5066656;28;20032;-68
2022/07/15 01:18:11;;;;;;;16.13;3.60;;;;;;;12.75;100.00;101180.66;5061439;28;20020;-68
2022/07/15 01:20:43;;;;;;;7.18;3.92;;;;;;;12.74;100.00;101194.81;5064989;28;20502;-68
2022/07/15 01:23:09;;;;;;;8.68;4.45;;;;;;;12.66;100.00;101184.59;5064729;28;20036;-68
2022/07/15 01:25:34;;;;;;;10.30;3.70;;;;;;;12.66;100.00;101187.25;5065648;28;20024;-68
2022/07/15 01:27:59;;;;;;;9.07;3.85;;;;;;;12.37;100.00;101145.53;5057349;28;20033;-68
2022/07/15 01:30:25;;;;;;;8.00;3.58;;;;;;;12.60;100.00;101195.44;5054125;28;20048;-68
2022/07/15 01:32:51;;;;;;;7.60;4.22;;;;;;;12.57;100.00;101189.44;5061468;28;20128;-69
2022/07/15 01:35:17;;;;;;;7.88;3.38;;;;;;;12.56;100.00;101195.63;5054482;28;20032;-68
2022/07/15 01:37:43;;;;;;;15.00;3.78;;;;;;;12.50;100.00;101199.41;5058019;28;20033;-68
2022/07/15 01:40:08;;;;;;;8.52;3.83;;;;;;;12.46;100.00;101204.88;5061066;28;20032;-68
2022/07/15 01:42:34;;;;;;;10.98;3.65;;;;;;;12.34;100.00;101187.84;5055178;28;20039;-68
2022/07/15 01:45:00;;;;;;;8.05;3.38;;;;;;;12.33;100.00;101196.69;5054307;28;20041;-67
2022/07/15 01:47:26;;;;;;;9.18;3.67;;;;;;;12.30;100.00;101208.19;5055866;28;20029;-68
2022/07/15 01:49:51;;;;;;;10.90;3.47;;;;;;;12.25;100.00;101204.91;5093912;27;20028;-68
2022/07/15 01:52:17;;;;;;;14.70;3.67;;;;;;;12.21;100.00;101198.06;5057217;28;20031;-68
2022/07/15 01:54:42;;;;;;;8.35;3.95;;;;;;;12.17;100.00;101199.13;5054071;28;20032;-68
2022/07/15 01:57:08;;;;;;;8.52;4.00;;;;;;;12.15;100.00;101203.63;5064780;28;20400;-68
2022/07/15 01:59:33;;;;;;;8.00;3.45;;;;;;;12.12;100.00;101209.03;5058879;28;20070;-68
2022/07/15 02:01:59;;;;;;;9.77;3.63;;;;;;;12.09;100.00;101200.41;5068850;28;20085;-68
2022/07/15 02:04:24;;;;;;;10.48;4.32;;;;;;;12.04;100.00;101192.69;5059571;28;20021;-68
2022/07/15 02:06:50;;;;;;;13.18;4.47;;;;;;;11.98;100.00;101190.31;5054382;28;20028;-68
2022/07/15 02:09:15;;;;;;;6.40;3.28;;;;;;;11.94;100.00;101194.00;5071166;28;20024;-68
2022/07/15 02:11:41;;;;;;;9.25;4.22;;;;;;;11.63;100.00;101151.41;5056086;28;20051;-68
2022/07/15 02:14:06;;;;;;;14.80;3.78;;;;;;;11.86;100.00;101200.53;5069040;28;20025;-68
2022/07/15 02:16:33;;;;;;;6.78;3.72;;;;;;;11.63;100.00;101183.00;5063993;28;20029;-69
2022/07/15 02:19:00;;;;;;;7.80;3.40;;;;;;;11.72;100.00;101209.88;5073319;28;20480;-68
2022/07/15 02:21:28;;;;;;;6.32;3.40;;;;;;;11.61;100.00;101205.94;5073812;28;20027;-68
2022/07/15 02:23:54;;;;;;;10.18;3.58;;;;;;;11.59;100.00;101207.78;5059249;28;20028;-68
2022/07/15 02:26:20;;;;;;;8.93;3.90;;;;;;;11.55;100.00;101206.19;5090300;28;20110;-68
2022/07/15 02:28:46;;;;;;;8.77;4.72;;;;;;;11.45;100.00;101207.47;5072934;28;20040;-68
2022/07/15 02:31:12;;;;;;;10.75;4.20;;;;;;;11.46;100.00;101219.69;5074164;28;20032;-68
2022/07/15 02:33:38;;;;;;;7.63;4.53;;;;;;;11.24;100.00;101185.53;5055578;28;20119;-69
2022/07/15 02:36:04;;;;;;;9.75;4.25;;;;;;;11.27;100.00;101202.03;5058200;28;20029;-70
2022/07/15 02:38:29;;;;;;;14.88;4.63;;;;;;;11.36;100.00;101213.09;5053047;28;20048;-71
2022/07/15 02:40:55;;;;;;;8.80;3.85;;;;;;;11.23;100.00;101204.84;5054730;28;20028;-69
2022/07/15 02:43:21;;;;;;;10.70;5.22;;;;;;;10.86;100.00;101144.09;5086697;28;20022;-70
2022/07/15 02:45:47;;;;;;;6.43;4.05;;;;;;;11.21;100.00;101223.34;5079917;28;20111;-69
2022/07/15 02:48:12;;;;;;;6.78;4.30;;;;;;;11.19;100.00;101214.63;5072179;28;20222;-69
2022/07/15 02:50:38;;;;;;;9.30;4.78;;;;;;;11.17;100.00;101221.72;5069554;28;20070;-69
2022/07/15 02:53:03;;;;;;;7.68;4.35;;;;;;;11.22;100.00;101226.81;5067152;28;20397;-69
2022/07/15 02:55:29;;;;;;;7.95;4.32;;;;;;;11.20;100.00;101237.41;5053980;28;20071;-68
2022/07/15 02:57:55;;;;;;;9.88;4.68;;;;;;;10.86;100.00;101181.75;5054704;28;20542;-69
2022/07/15 03:00:20;;;;;;;7.93;3.95;;;;;;;11.09;100.00;101236.09;5066238;28;20025;-68
2022/07/15 03:02:46;;;;;;;8.85;4.57;;;;;;;10.99;100.00;101232.97;5048644;28;20082;-68
2022/07/15 03:05:13;;;;;;;7.82;4.43;;;;;;;10.94;100.00;101245.44;5071104;28;20103;-68
2022/07/15 03:07:38;;;;;;;8.20;4.57;;;;;;;10.64;100.00;101218.53;5069240;28;20036;-68
2022/07/15 03:10:06;;;;;;;10.68;4.63;;;;;;;10.70;100.00;101241.09;5055424;28;20031;-68
2022/07/15 03:12:32;;;;;;;6.47;4.10;;;;;;;10.62;100.00;101238.75;5063000;28;20028;-68
2022/07/15 03:14:58;;;;;;;8.73;4.28;;;;;;;10.59;100.00;101241.50;5056841;28;20031;-68
2022/07/15 03:17:24;;;;;;;8.15;4.78;;;;;;;10.55;100.00;101252.16;5052203;28;20029;-67
2022/07/15 03:19:49;;;;;;;9.95;4.93;;;;;;;10.57;100.00;101258.25;5060785;28;20086;-68
2022/07/15 03:22:15;;;;;;;8.43;5.20;;;;;;;10.57;100.00;101260.88;5082677;28;20024;-68
2022/07/15 03:24:40;;;;;;;12.85;5.90;;;;;;;10.64;100.00;101251.84;5082119;28;20040;-68
2022/07/15 03:27:05;;;;;;;10.07;4.82;;;;;;;10.64;100.00;101254.47;5062367;28;20457;-68
2022/07/15 03:29:31;;;;;;;11.55;4.53;;;;;;;10.55;100.00;101244.28;5056042;28;20094;-68
2022/07/15 03:31:56;;;;;;;14.63;5.38;;;;;;;10.65;100.00;101254.41;5051538;28;20029;-68
2022/07/15 03:34:25;;;;;;;9.40;5.32;;;;;;;10.69;100.00;101269.16;5057298;28;20037;-68
2022/07/15 03:36:50;;;;;;;12.02;4.60;;;;;;;10.56;100.00;101248.63;5081663;28;20078;-68
2022/07/15 03:39:15;;;;;;;10.30;5.13;;;;;;;10.64;100.00;101262.34;5084603;28;20029;-68
2022/07/15 03:41:41;;;;;;;10.57;4.43;;;;;;;10.63;100.00;101260.63;5066213;28;20031;-68
2022/07/15 03:44:06;;;;;;;9.77;5.88;;;;;;;10.61;100.00;101262.47;5064463;28;20173;-68
2022/07/15 03:46:33;;;;;;;8.07;4.65;;;;;;;10.70;100.00;101272.66;5073592;28;20063;-68
2022/07/15 03:48:58;;;;;;;20.85;5.65;;;;;;;10.75;100.00;101266.28;5051714;28;20513;-68
2022/07/15 03:51:24;;;;;;;8.10;5.03;;;;;;;10.79;100.00;101269.66;5072739;28;20103;-68
2022/07/15 03:53:50;;;;;;;10.48;5.07;;;;;;;10.86;100.00;101276.41;5063566;28;20471;-68
2022/07/15 03:56:16;;;;;;;10.25;4.45;;;;;;;10.85;100.00;101272.06;5073221;28;20035;-68
2022/07/15 03:58:41;;;;;;;14.57;5.13;;;;;;;10.85;100.00;101272.06;5071912;28;20529;-68
2022/07/15 04:01:07;;;;;;;8.10;4.47;;;;;;;10.82;100.00;101261.66;5068489;28;20112;-68
2022/07/15 04:03:33;;;;;;;6.93;4.50;;;;;;;10.81;100.00;101262.59;5059903;28;20032;-68
2022/07/15 04:05:58;;;;;;;9.40;4.80;;;;;;;10.87;100.00;101272.00;5058322;28;20450;-68
2022/07/15 04:08:25;;;;;;;8.30;4.75;;;;;;;10.78;100.00;101286.38;5078562;28;20052;-68
2022/07/15 04:10:50;;;;;;;9.18;4.65;;;;;;;10.22;100.00;101202.56;5092151;28;20103;-68
2022/07/15 04:13:18;;;;;;;16.08;5.40;;;;;;;10.65;100.00;101269.31;5073029;28;20123;-68
2022/07/15 04:15:44;;;;;;;9.18;5.25;;;;;;;10.71;100.00;101277.00;5071117;28;20050;-68
2022/07/15 04:18:10;;;;;;;13.35;5.18;;;;;;;10.71;100.00;101279.63;5079767;28;20053;-68
2022/07/15 04:20:35;;;;;;;9.80;5.43;;;;;;;10.68;100.00;101258.69;5066473;28;20107;-68
2022/07/15 04:23:01;;;;;;;10.40;4.93;;;;;;;10.78;100.00;101286.38;5064465;28;20468;-68
2022/07/15 04:25:26;;;;;;;12.80;5.25;;;;;;;10.70;100.00;101256.88;5073958;28;20020;-68
2022/07/15 04:27:52;;;;;;;9.15;4.78;;;;;;;10.84;100.00;101265.09;5079443;28;20033;-68
2022/07/15 04:30:17;;;;;;;14.55;5.53;;;;;;;10.90;100.00;101278.03;5065434;28;20449;-68
2022/07/15 04:32:43;;;;;;;8.65;4.72;;;;;;;10.92;100.00;101268.28;5055519;28;20032;-68
2022/07/15 04:35:08;;;;;;;11.50;5.78;;;;;;;10.98;100.00;101273.34;5067678;28;20037;-68
2022/07/15 04:37:34;;;;;;;14.90;5.60;;;;;;;11.01;100.00;101273.22;5090693;28;20107;-68
2022/07/15 04:39:59;;;;;;;13.60;5.63;;;;;;;10.96;100.00;101264.63;5074929;28;20032;-68
2022/07/15 04:42:25;;;;;;;10.73;5.22;;;;;;;11.14;100.00;101287.63;5066210;28;20032;-68
2022/07/15 04:44:50;;;;;;;11.25;5.68;;;;;;;11.18;100.00;101285.72;5065006;28;20035;-68
2022/07/15 04:47:16;;;;;;;10.63;5.72;;;;;;;10.99;100.00;101246.09;5076491;28;20099;-68
2022/07/15 04:52:25;;;;;;;11.03;5.27;;;;;;;11.25;100.00;101272.25;5056389;28;20039;-68
2022/07/15 04:54:52;;;;;;;11.35;5.57;;;;;;;11.32;100.00;101283.44;5064462;28;20036;-68
2022/07/15 04:57:18;;;;;;;11.45;5.47;;;;;;;11.34;100.00;101280.72;5064761;28;20483;-68
2022/07/15 04:59:43;;;;;;;16.17;5.30;;;;;;;11.16;100.00;101235.78;5072149;28;20078;-68
2022/07/15 05:02:08;;;;;;;8.13;5.35;;;;;;;11.54;100.00;101283.41;5056525;28;20055;-68
2022/07/15 05:04:34;;;;;;;9.95;5.13;;;;;;;11.60;100.00;101288.44;5062681;28;20025;-67
2022/07/15 05:06:59;;;;;;;7.22;4.80;;;;;;;11.63;100.00;101275.16;5087237;28;20100;-68
2022/07/15 05:09:25;;;;;;;10.82;5.95;;;;;;;11.75;100.00;101285.22;5083622;28;20105;-67
2022/07/15 05:11:50;;;;;;;10.95;4.82;;;;;;;11.74;100.00;101280.88;5070946;28;20029;-67
2022/07/15 05:14:15;;;;;;;10.15;5.65;;;;;;;11.71;100.00;101275.75;5079132;28;20024;-67
2022/07/15 05:16:41;;;;;;;8.80;5.47;;;;;;;11.65;100.00;101271.56;5074523;28;20028;-68
2022/07/15 05:19:06;;;;;;;12.70;6.53;;;;;;;11.82;100.00;101286.69;5081780;28;20031;-67
2022/07/15 05:21:32;;;;;;;13.32;6.03;;;;;;;11.75;100.00;101269.44;5074892;28;20462;-68
2022/07/15 05:23:57;;;;;;;7.10;5.00;;;;;;;11.97;100.00;101283.41;5089575;28;20081;-67
2022/07/15 05:26:23;;;;;;;9.43;5.38;;;;;;;12.08;100.00;101294.38;5071753;28;20021;-67
2022/07/15 05:28:49;;;;;;;10.40;5.68;;;;;;;12.03;100.00;101283.16;5079575;28;20030;-68
2022/07/15 05:31:14;;;;;;;15.80;5.65;;;;;;;12.15;100.00;101287.06;5063365;28;20040;-67
2022/07/15 05:33:39;;;;;;;8.65;4.88;;;;;;;12.27;100.00;101287.38;5069213;28;20059;-68
2022/07/15 05:36:05;;;;;;;8.50;4.93;;;;;;;12.34;100.00;101281.84;5072988;28;20024;-67
2022/07/15 05:38:31;;;;;;;12.18;5.75;;;;;;;12.57;100.00;101285.19;5076491;28;20028;-68
2022/07/15 05:40:56;;;;;;;10.75;5.25;;;;;;;12.73;100.00;101302.06;5083259;28;20031;-67
2022/07/15 05:43:23;;;;;;;17.33;5.15;;;;;;;12.77;100.00;101293.06;5070971;28;20070;-68
2022/07/15 05:45:49;;;;;;;10.13;5.15;;;;;;;12.82;100.00;101274.41;5075817;28;20032;-67
2022/07/15 05:48:14;;;;;;;12.85;4.72;;;;;;;13.01;100.00;101292.91;5075172;28;20029;-67
2022/07/15 05:50:39;;;;;;;13.75;4.95;;;;;;;13.08;100.00;101292.53;5071431;28;20036;-67
2022/07/15 05:53:05;;;;;;;7.40;3.90;;;;;;;13.17;100.00;101294.81;5072835;28;20078;-67
2022/07/15 05:55:30;;;;;;;6.97;4.10;;;;;;;13.23;100.00;101291.88;5071370;28;20037;-67
2022/07/15 05:57:56;;;;;;;12.48;5.05;;;;;;;13.30;100.00;101295.94;5072717;28;20382;-67
2022/07/15 06:00:21;;;;;;;9.73;4.32;;;;;;;13.37;100.00;101298.28;5076903;28;20028;-67
2022/07/15 06:02:46;;;;;;;10.60;4.15;;;;;;;13.43;100.00;101298.00;5077512;28;20024;-67
2022/07/15 06:05:12;;;;;;;13.02;3.97;;;;;;;13.53;100.00;101294.84;5065831;28;20151;-67
2022/07/15 06:07:37;;;;;;;9.38;3.85;;;;;;;13.44;100.00;101268.03;5052705;28;20473;-67
2022/07/15 06:10:04;;;;;;;6.45;3.42;;;;;;;13.73;100.00;101297.38;5058777;28;20033;-67
2022/07/15 06:12:29;;;;;;;9.10;4.00;;;;;;;13.66;100.00;101266.03;5084726;28;20036;-67
2022/07/15 06:14:55;;;;;;;11.77;4.50;;;;;;;13.91;100.00;101300.91;5091997;28;20085;-67
2022/07/15 06:17:20;;;;;;;7.38;3.03;;;;;;;13.99;100.00;101296.06;5079130;28;20720;-68
2022/07/15 06:19:45;;;;;;;8.98;3.58;;;;;;;14.09;100.00;101305.25;5058339;28;20029;-68
2022/07/15 06:22:11;;;;;;;10.90;3.78;;;;;;;14.17;100.00;101302.22;5073148;28;20479;-68
2022/07/15 06:24:36;;;;;;;14.88;4.15;;;;;;;13.94;100.00;101258.47;5074053;28;20025;-68
2022/07/15 06:27:02;;;;;;;14.20;4.00;;;;;;;14.21;100.00;101291.44;5069302;28;20024;-68
2022/07/15 06:29:27;;;;;;;9.88;3.97;;;;;;;14.23;100.00;101288.69;5061693;28;20020;-68
2022/07/15 06:31:52;;;;;;;11.27;4.35;;;;;;;14.34;100.00;101304.91;5069447;28;20029;-68
2022/07/15 06:34:18;;;;;;;9.27;3.35;;;;;;;14.38;100.00;101308.25;5074275;28;20027;-69
2022/07/15 06:36:43;;;;;;;5.00;2.60;;;;;;;14.37;100.00;101303.88;5070909;28;20024;-68
2022/07/15 06:39:08;;;;;;;9.02;3.38;;;;;;;14.49;100.00;101308.56;5035082;28;20112;-68
2022/07/15 06:41:34;;;;;;;9.90;3.38;;;;;;;14.61;100.00;101314.06;5063633;28;20035;-68
2022/07/15 06:44:01;;;;;;;7.43;3.05;;;;;;;14.71;100.00;101309.16;5058179;28;20029;-68
2022/07/15 06:46:27;;;;;;;7.45;3.08;;;;;;;14.77;100.00;101314.09;5070220;28;20029;-67
2022/07/15 06:48:53;;;;;;;5.03;2.40;;;;;;;14.87;100.00;101320.63;5062850;28;20425;-68
2022/07/15 06:51:18;;;;;;;5.88;2.38;;;;;;;14.98;100.00;101307.69;5056556;28;20017;-68
2022/07/15 06:53:43;;;;;;;6.85;2.13;;;;;;;15.14;100.00;101313.84;5071137;28;20115;-68
2022/07/15 06:56:09;;;;;;;4.95;2.10;;;;;;;15.17;100.00;101295.19;5070764;28;20028;-68
2022/07/15 06:58:35;;;;;;;5.85;2.17;;;;;;;15.32;100.00;101307.56;5070787;28;20090;-68
2022/07/15 07:01:00;;;;;;;8.25;2.08;;;;;;;15.35;100.00;101304.75;5067986;28;20020;-68
2022/07/15 07:03:26;;;;;;;11.95;3.22;;;;;;;15.48;100.00;101309.38;5057090;28;20021;-68
2022/07/15 07:05:51;;;;;;;5.90;2.33;;;;;;;15.43;100.00;101292.88;5065910;28;20028;-68
2022/07/15 07:08:17;;;;;;;5.60;1.98;;;;;;;15.51;100.00;101306.56;5059967;28;20070;-68
2022/07/15 07:10:42;;;;;;;6.65;2.78;;;;;;;15.56;100.00;101304.50;5063379;28;20107;-68
2022/07/15 07:13:08;;;;;;;7.28;1.70;;;;;;;15.54;100.00;101306.41;5062600;28;20039;-68
2022/07/15 07:15:33;;;;;;;4.38;2.00;;;;;;;15.61;100.00;101313.06;5077122;28;20051;-68
2022/07/15 07:17:59;;;;;;;6.90;1.95;;;;;;;15.59;100.00;101309.63;5067297;28;20028;-68
2022/07/15 07:20:24;;;;;;;4.20;2.08;;;;;;;15.57;100.00;101306.22;5056484;28;20016;-68
2022/07/15 07:22:49;;;;;;;5.10;1.98;;;;;;;15.62;100.00;101309.47;5080128;28;20397;-67
2022/07/15 07:25:15;;;;;;;5.53;2.10;;;;;;;15.66;100.00;101311.00;5081313;28;20543;-68
2022/07/15 07:27:40;;;;;;;4.90;1.80;;;;;;;15.38;100.00;101284.34;5061670;28;20055;-68
2022/07/15 07:30:06;;;;;;;7.30;2.47;;;;;;;15.57;100.00;101311.53;5055129;28;20039;-67
2022/07/15 07:32:32;;;;;;;4.68;2.05;;;;;;;15.62;100.00;101305.03;5083564;28;20514;-68
2022/07/15 07:34:58;;;;;;;7.25;2.22;;;;;;;15.76;100.00;101323.66;5071224;28;20064;-68
2022/07/15 07:37:24;;;;;;;7.35;2.60;;;;;;;15.90;100.00;101306.09;5073865;28;20471;-68
2022/07/15 07:39:49;;;;;;;9.15;2.13;;;;;;;16.13;100.00;101311.78;5061055;28;20041;-68
2022/07/15 07:42:15;;;;;;;13.65;2.40;;;;;;;16.29;100.00;101309.91;5055953;28;20017;-67
2022/07/15 07:44:42;;;;;;;4.72;1.83;;;;;;;16.44;100.00;101317.91;5066569;28;20060;-68
2022/07/15 07:47:08;;;;;;;6.25;2.00;;;;;;;16.38;100.00;101305.03;5058495;28;20048;-68
2022/07/15 07:49:33;;;;;;;8.88;2.30;;;;;;;16.25;100.00;101292.50;5074141;28;20088;-68
2022/07/15 07:51:59;;;;;;;5.65;1.90;;;;;;;16.17;100.00;101286.78;5070288;28;20070;-68
2022/07/15 07:54:24;;;;;;;4.40;2.00;;;;;;;16.16;100.00;101305.44;5101115;28;20104;-68
2022/07/15 07:56:50;;;;;;;4.10;1.60;;;;;;;16.09;100.00;101319.97;5074035;28;20440;-68
2022/07/15 07:59:15;;;;;;;4.68;2.00;;;;;;;15.99;100.00;101314.38;5065638;28;20032;-68
2022/07/15 08:01:40;;;;;;;4.88;2.17;;;;;;;15.95;100.00;101307.56;5051575;28;20496;-67
2022/07/15 08:04:06;;;;;;;5.05;2.13;;;;;;;15.96;100.00;101314.53;5062880;28;20036;-68
2022/07/15 08:06:33;;;;;;;7.88;2.00;;;;;;;15.96;100.00;101303.09;5070980;28;20444;-68
2022/07/15 08:08:59;;;;;;;6.30;1.80;;;;;;;16.17;100.00;101305.34;5071941;28;20030;-68
2022/07/15 08:11:24;;;;;;;7.55;2.25;;;;;;;16.42;100.00;101315.38;5069281;28;20457;-69
2022/07/15 08:13:50;;;;;;;5.50;1.65;;;;;;;16.66;100.00;101316.56;5066102;28;20375;-69
2022/07/15 08:16:15;;;;;;;4.20;1.60;;;;;;;16.60;100.00;101278.91;5058938;28;20249;-68
2022/07/15 08:18:41;;;;;;;9.68;2.03;;;;;;;17.04;100.00;101326.63;5068670;28;20025;-69
2022/07/15 08:21:07;;;;;;;4.45;1.50;;;;;;;16.90;100.00;101327.47;5066541;28;20017;-69
2022/07/15 08:23:32;;;;;;;5.90;1.52;;;;;;;16.78;100.00;101310.53;5069406;28;20023;-69
2022/07/15 08:25:58;;;;;;;5.85;2.10;;;;;;;16.71;100.00;101333.06;5088897;27;20629;-68
2022/07/15 08:28:24;;;;;;;5.82;1.92;;;;;;;16.64;100.00;101328.22;5069381;28;20021;-68
2022/07/15 08:30:50;;;;;;;3.33;1.67;;;;;;;16.45;100.00;101327.59;5072596;28;20485;-68
2022/07/15 08:33:16;;;;;;;6.20;1.88;;;;;;;16.14;100.00;101313.50;5045479;28;20039;-68
2022/07/15 08:35:41;;;;;;;7.50;2.25;;;;;;;16.15;100.00;101323.16;5030343;28;20033;-68
2022/07/15 08:38:08;;;;;;;4.70;2.30;;;;;;;16.21;100.00;101330.75;5061181;28;20420;-69
2022/07/15 08:40:37;;;;;;;5.45;1.95;;;;;;;15.94;100.00;101268.72;5084621;28;20671;-68
2022/07/15 08:43:07;;;;;;;5.53;1.83;;;;;;;16.50;100.00;101328.16;5064206;28;20069;-68
2022/07/15 08:45:34;;;;;;;9.15;1.65;;;;;;;16.65;100.00;101320.19;5058524;28;20033;-69
2022/07/15 08:48:01;;;;;;;3.97;1.55;;;;;;;16.65;100.00;101314.00;5072883;28;20032;-68
2022/07/15 08:50:27;;;;;;;3.90;1.85;;;;;;;16.82;100.00;101332.44;5076230;28;20070;-68
2022/07/15 08:52:54;;;;;;;7.22;2.05;;;;;;;16.91;100.00;101315.91;5082554;28;20097;-68
2022/07/15 08:55:20;;;;;;;5.57;1.73;;;;;;;17.06;100.00;101322.94;5058259;28;20551;-68
2022/07/15 08:57:52;;;;;;;3.72;1.27;;;;;;;17.16;100.00;101310.81;5060305;28;20028;-68
2022/07/15 09:00:22;;;;;;;11.15;2.90;;;;;;;17.33;100.00;101318.56;5066555;28;20017;-68
2022/07/15 09:02:47;;;;;;;5.13;1.85;;;;;;;17.51;100.00;101329.81;5053544;28;20040;-68
2022/07/15 09:05:28;;;;;;;5.10;1.55;;;;;;;17.73;100.00;101324.00;5070756;28;20021;-69
2022/07/15 09:08:07;;;;;;;5.75;1.80;;;;;;;17.75;100.00;101330.06;5070592;28;20157;-68
2022/07/15 09:10:50;;;;;;;5.43;1.58;;;;;;;17.68;100.00;101307.47;5062034;28;20036;-69
2022/07/15 09:13:40;;;;;;;4.15;1.92;;;;;;;17.65;100.00;101323.63;5068268;28;20079;-69
2022/07/15 09:16:08;;;;;;;4.90;1.85;;;;;;;17.41;100.00;101322.50;5053028;28;20028;-68
2022/07/15 09:18:42;;;;;;;7.78;1.50;;;;;;;17.21;100.00;101302.53;5059305;28;20040;-69
2022/07/15 09:21:16;;;;;;;4.53;1.73;;;;;;;17.33;100.00;101317.72;5053278;28;20029;-69
2022/07/15 09:23:41;;;;;;;3.17;1.40;;;;;;;17.32;100.00;101303.56;5056373;28;20336;-69
2022/07/15 09:26:32;;;;;;;5.32;2.22;;;;;;;17.50;100.00;101311.31;5088152;28;20029;-69
2022/07/15 09:28:59;;;;;;;3.60;1.60;;;;;;;17.55;100.00;101311.84;5060478;28;20040;-69
2022/07/15 09:34:22;;;;;;;5.22;1.20;;;;;;;17.68;99.13;101305.69;5056121;28;20063;-69
2022/07/15 09:36:54;;;;;;;5.40;1.70;;;;;;;17.97;100.00;101309.09;5067379;28;20021;-70
2022/07/15 09:39:20;;;;;;;4.78;1.58;;;;;;;18.10;97.37;101278.06;5073566;28;20055;-69
2022/07/15 09:41:47;;;;;;;3.67;1.63;;;;;;;18.45;96.03;101298.78;5051434;28;20036;-69
2022/07/15 09:44:17;;;;;;;3.85;1.23;;;;;;;18.76;96.23;101298.38;5052571;28;20036;-70
2022/07/15 09:46:49;;;;;;;3.22;1.63;;;;;;;18.97;91.46;101304.84;5047671;28;20028;-70
2022/07/15 09:49:23;;;;;;;4.05;1.30;;;;;;;18.80;90.94;101313.19;5056648;28;20445;-71
2022/07/15 09:52:06;;;;;;;;;;;;;;;18.44;91.12;101310.38;5055330;28;20040;-68
2022/07/15 09:54:34;;;;;;;3.95;1.52;;;;;;;18.00;91.92;101298.25;5094354;28;19963;-69
2022/07/15 09:57:02;;;;;;;3.97;1.58;;;;;;;17.80;97.12;101320.00;5072776;28;20135;-69
2022/07/15 09:59:29;;;;;;;3.45;1.42;;;;;;;17.69;93.50;101310.06;5069360;28;20028;-72
2022/07/15 10:01:54;;;;;;;4.28;1.33;;;;;;;17.53;91.74;101261.47;5075197;28;20032;-69
2022/07/15 10:04:22;;;;;;;9.30;1.70;;;;;;;17.96;91.03;101301.22;5085970;28;20032;-69
2022/07/15 10:06:50;;;;;;;4.85;1.40;;;;;;;18.16;95.83;101298.94;5067977;28;20031;-68
2022/07/15 10:09:21;;;;;;;4.45;1.55;;;;;;;18.27;95.30;101285.75;5050444;28;20031;-69
2022/07/15 10:11:49;;;;;;;5.65;1.38;;;;;;;18.48;91.83;101298.56;5067824;28;20025;-69
2022/07/15 10:14:29;;;;;;;7.35;1.58;;;;;;;18.39;91.85;101298.22;5071398;28;20032;-70
2022/07/15 10:17:13;;;;;;;4.15;1.65;;;;;;;18.51;89.62;101303.69;5057454;28;20059;-68
2022/07/15 10:19:44;;;;;;;5.88;1.63;;;;;;;18.64;85.99;101294.75;5070737;28;20031;-68
2022/07/15 10:22:28;;;;;;;5.78;1.63;;;;;;;18.84;89.15;101296.88;5085459;28;20078;-69
2022/07/15 10:24:59;;;;;;;7.63;1.80;;;;;;;19.01;86.63;101287.69;5082990;28;20059;-68
2022/07/15 10:27:46;;;;;;;6.65;1.70;;;;;;;19.18;86.46;101290.00;5074542;28;20071;-69
2022/07/15 10:30:12;;;;;;;6.35;1.75;;;;;;;19.01;83.61;101250.41;5053311;28;20083;-68
2022/07/15 10:33:10;;;;;;;7.25;1.70;;;;;;;19.30;83.68;101289.13;5058833;28;20025;-69
2022/07/15 10:35:49;;;;;;;3.63;1.40;;;;;;;19.41;84.81;101287.53;5075938;28;20033;-69
2022/07/15 10:38:26;;;;;;;3.65;1.30;;;;;;;19.61;83.35;101286.91;5065152;28;20032;-69
2022/07/15 10:41:05;;;;;;;2.08;0.93;;;;;;;19.48;82.86;101286.13;5075119;28;20379;-68
2022/07/15 10:43:57;;;;;;;3.70;1.40;;;;;;;19.08;84.08;101283.66;5048997;28;20029;-69
2022/07/15 10:46:25;;;;;;;2.95;1.15;;;;;;;18.98;85.46;101260.44;5038921;28;20147;-70
2022/07/15 10:49:10;;;;;;;1.67;0.80;;;;;;;19.26;86.36;101266.31;5062842;28;20047;-70
2022/07/15 10:51:36;;;;;;;4.65;1.10;;;;;;;19.48;80.97;101270.13;5041709;28;20040;-68
2022/07/15 10:54:05;;;;;;;6.47;1.40;;;;;;;19.53;80.29;101252.00;5060136;28;20405;-69
2022/07/15 10:56:36;;;;;;;3.88;1.40;;;;;;;19.72;81.48;101257.66;5045744;28;20082;-69
2022/07/15 10:59:21;;;;;;;4.43;1.50;;;;;;;19.83;80.55;101260.38;5050828;28;20036;-68
2022/07/15 11:01:49;;;;;;;3.83;1.23;;;;;;;20.09;80.77;101253.91;5061996;28;20036;-68
2022/07/15 11:04:17;;;;;;;3.75;1.55;;;;;;;20.37;80.43;101245.53;5069271;28;20479;-69
2022/07/15 11:07:09;;;;;;;3.20;1.08;;;;;;;20.66;74.75;101250.41;5059734;28;20428;-69
2022/07/15 11:09:53;;;;;;;2.53;1.05;;;;;;;20.73;76.29;101240.94;5043451;28;20380;-70
2022/07/15 11:12:32;;;;;;;2.53;0.98;;;;;;;21.15;78.23;101242.91;5062138;28;20125;-70
2022/07/15 11:14:59;;;;;;;5.75;1.42;;;;;;;21.38;75.26;101241.88;5064195;28;20025;-69
2022/07/15 11:17:25;;;;;;;3.60;1.23;;;;;;;21.63;78.03;101242.53;5051736;28;20036;-69
2022/07/15 11:19:53;;;;;;;2.88;1.00;;;;;;;21.34;72.63;101235.06;5057441;28;20494;-71
2022/07/15 11:22:21;;;;;;;5.07;1.60;;;;;;;20.85;72.65;101240.81;5058027;28;20127;-70
2022/07/15 11:24:46;;;;;;;2.85;1.42;;;;;;;20.77;72.73;101243.25;5058039;28;20021;-69